createdAt,value
2023-03-16T00:00:51.288Z,2.01
2023-03-16T00:03:20.293Z,2.31
2023-03-16T00:05:48.494Z,2.25
2023-03-16T00:08:16.935Z,2.48
2023-03-16T00:10:46.962Z,2.35
2023-03-16T00:13:17.302Z,2.11
2023-03-16T00:15:52.030Z,2.04
2023-03-16T00:18:20.273Z,2.06
2023-03-16T00:20:51.953Z,2.06
2023-03-16T00:23:20.148Z,2.06
2023-03-16T00:25:48.050Z,2.07
2023-03-16T00:28:17.107Z,1.12
2023-03-16T00:30:47.363Z,1.93
2023-03-16T00:33:15.149Z,2.04
2023-03-16T00:35:50.374Z,2.42
2023-03-16T00:38:18.908Z,1.91
2023-03-16T00:40:47.205Z,1.35
2023-03-16T00:43:18.722Z,1.67
2023-03-16T00:45:48.508Z,1.70
2023-03-16T00:48:16.551Z,1.92
2023-03-16T00:50:44.319Z,2.17
2023-03-16T00:53:12.081Z,1.68
2023-03-16T00:55:39.802Z,2.32
2023-03-16T00:58:07.504Z,2.10
2023-03-16T01:00:36.223Z,2.41
2023-03-16T01:03:05.458Z,2.73
2023-03-16T01:05:34.460Z,2.59
2023-03-16T01:08:02.801Z,2.86
2023-03-16T01:10:30.581Z,2.72
2023-03-16T01:12:58.550Z,2.08
2023-03-16T01:15:26.391Z,2.37
2023-03-16T01:17:54.413Z,2.62
2023-03-16T01:20:24.286Z,2.42
2023-03-16T01:22:52.275Z,2.44
2023-03-16T01:25:21.213Z,2.40
2023-03-16T01:27:49.027Z,2.54
2023-03-16T01:30:17.130Z,2.53
2023-03-16T01:32:44.880Z,2.47
2023-03-16T01:35:12.821Z,1.76
2023-03-16T01:37:42.471Z,1.70
2023-03-16T01:40:12.511Z,1.67
2023-03-16T01:42:47.325Z,1.88
2023-03-16T01:45:53.866Z,1.51
2023-03-16T01:48:24.967Z,0.82
2023-03-16T01:50:53.512Z,1.04
2023-03-16T01:53:26.681Z,0.79
2023-03-16T01:55:55.769Z,0.99
2023-03-16T01:58:24.195Z,1.25
2023-03-16T02:00:51.937Z,0.84
2023-03-16T02:03:22.146Z,1.45
2023-03-16T02:05:54.525Z,1.62
2023-03-16T02:08:24.015Z,0.99
2023-03-16T02:10:54.630Z,1.31
2023-03-16T02:13:23.119Z,1.31
2023-03-16T02:15:52.174Z,1.69
2023-03-16T02:18:23.019Z,1.84
2023-03-16T02:20:59.164Z,1.50
2023-03-16T02:23:29.101Z,1.13
2023-03-16T02:26:02.674Z,1.87
2023-03-16T02:28:38.288Z,1.76
2023-03-16T02:31:08.299Z,1.39
2023-03-16T02:33:36.618Z,1.36
2023-03-16T02:36:04.703Z,1.07
2023-03-16T02:38:32.665Z,1.10
2023-03-16T02:41:07.212Z,1.20
2023-03-16T02:43:39.042Z,1.27
2023-03-16T02:46:08.971Z,1.34
2023-03-16T02:48:43.486Z,1.06
2023-03-16T02:51:11.820Z,1.43
2023-03-16T02:53:39.596Z,1.25
2023-03-16T02:56:08.203Z,1.44
2023-03-16T02:58:36.298Z,1.15
2023-03-16T03:01:04.727Z,1.22
2023-03-16T03:03:34.402Z,1.30
2023-03-16T03:06:02.729Z,1.54
2023-03-16T03:08:32.984Z,1.78
2023-03-16T03:11:01.016Z,1.93
2023-03-16T03:13:28.781Z,2.10
2023-03-16T03:15:56.505Z,2.07
2023-03-16T03:18:25.173Z,2.03
2023-03-16T03:20:55.515Z,2.06
2023-03-16T03:23:23.664Z,1.74
2023-03-16T03:25:51.435Z,2.29
2023-03-16T03:28:19.288Z,2.17
2023-03-16T03:30:47.108Z,2.52
2023-03-16T03:33:14.813Z,2.47
2023-03-16T03:35:43.071Z,2.20
2023-03-16T03:38:12.180Z,2.36
2023-03-16T03:40:39.930Z,1.85
2023-03-16T03:43:07.766Z,1.68
2023-03-16T03:45:35.621Z,1.78
2023-03-16T03:48:03.408Z,1.79
2023-03-16T03:50:31.095Z,1.77
2023-03-16T03:52:58.746Z,1.88
2023-03-16T03:55:27.835Z,1.75
2023-03-16T03:57:55.533Z,1.67
2023-03-16T04:00:23.780Z,1.43
2023-03-16T04:02:51.654Z,1.68
2023-03-16T04:05:19.738Z,1.43
2023-03-16T04:07:47.483Z,1.59
2023-03-16T04:10:15.554Z,1.72
2023-03-16T04:12:44.674Z,1.65
2023-03-16T04:15:13.820Z,1.99
2023-03-16T04:17:41.543Z,1.89
2023-03-16T04:20:15.286Z,1.62
2023-03-16T04:22:43.546Z,1.78
2023-03-16T04:25:11.707Z,1.62
2023-03-16T04:27:39.916Z,1.80
2023-03-16T04:30:12.227Z,1.56
2023-03-16T04:32:40.210Z,1.32
2023-03-16T04:35:08.599Z,1.48
2023-03-16T04:37:36.286Z,1.57
2023-03-16T04:40:11.022Z,1.48
2023-03-16T04:42:39.107Z,2.07
2023-03-16T04:45:08.603Z,1.96
2023-03-16T04:47:37.774Z,2.14
2023-03-16T04:50:06.956Z,2.18
2023-03-16T04:52:34.594Z,2.21
2023-03-16T04:55:02.389Z,1.93
2023-03-16T04:57:30.571Z,1.79
2023-03-16T04:59:58.441Z,1.92
2023-03-16T05:02:26.220Z,1.76
2023-03-16T05:04:55.264Z,1.94
2023-03-16T05:07:22.999Z,1.98
2023-03-16T05:09:50.694Z,1.83
2023-03-16T05:12:18.468Z,1.65
2023-03-16T05:14:46.370Z,2.01
2023-03-16T05:17:14.847Z,2.13
2023-03-16T05:19:42.917Z,2.02
2023-03-16T05:22:12.320Z,2.25
2023-03-16T05:24:40.013Z,2.31
2023-03-16T05:27:07.719Z,2.37
2023-03-16T05:29:35.428Z,2.31
2023-03-16T05:32:03.750Z,2.07
2023-03-16T05:34:31.742Z,2.27
2023-03-16T05:36:59.589Z,2.48
2023-03-16T05:39:30.793Z,2.36
2023-03-16T05:41:58.595Z,2.27
2023-03-16T05:44:26.659Z,2.27
2023-03-16T05:46:54.437Z,2.45
2023-03-16T05:49:22.227Z,2.27
2023-03-16T05:51:50.261Z,2.32
2023-03-16T05:54:18.148Z,2.22
2023-03-16T05:56:47.253Z,2.56
2023-03-16T05:59:15.899Z,2.78
2023-03-16T06:01:43.630Z,1.75
2023-03-16T06:04:11.456Z,2.11
2023-03-16T06:06:39.510Z,2.34
2023-03-16T06:09:07.221Z,2.58
2023-03-16T06:11:34.944Z,2.78
2023-03-16T06:14:04.330Z,2.63
2023-03-16T06:16:32.681Z,2.90
2023-03-16T06:19:01.034Z,3.23
2023-03-16T06:21:28.861Z,2.93
2023-03-16T06:23:56.639Z,3.08
2023-03-16T06:26:24.486Z,3.36
2023-03-16T06:28:52.272Z,3.63
2023-03-16T06:31:21.427Z,3.68
2023-03-16T06:33:49.381Z,2.95
2023-03-16T06:36:17.121Z,3.46
2023-03-16T06:38:44.844Z,3.88
2023-03-16T06:41:12.509Z,3.43
2023-03-16T06:43:40.293Z,3.78
2023-03-16T06:46:08.189Z,3.90
2023-03-16T06:48:37.306Z,4.52
2023-03-16T06:51:07.551Z,4.00
2023-03-16T06:53:35.560Z,4.45
2023-03-16T06:56:03.538Z,4.84
2023-03-16T06:58:31.281Z,4.73
2023-03-16T07:01:03.510Z,5.11
2023-03-16T07:03:32.032Z,5.39
2023-03-16T07:06:01.715Z,5.05
2023-03-16T07:08:29.481Z,5.21
2023-03-16T07:10:57.258Z,5.82
2023-03-16T07:13:25.082Z,7.61
2023-03-16T07:15:53.665Z,7.53
2023-03-16T07:18:21.679Z,7.39
2023-03-16T07:20:49.516Z,7.76
2023-03-16T07:23:18.758Z,8.09
2023-03-16T07:25:46.527Z,9.75
2023-03-16T07:28:14.420Z,9.37
2023-03-16T07:30:50.532Z,7.91
2023-03-16T07:33:28.334Z,8.30
2023-03-16T07:35:56.074Z,8.40
2023-03-16T07:38:25.346Z,8.74
2023-03-16T07:40:53.209Z,8.51
2023-03-16T07:43:21.169Z,9.40
2023-03-16T07:45:50.480Z,8.76
2023-03-16T07:48:19.352Z,8.65
2023-03-16T07:50:48.880Z,8.00
2023-03-16T07:53:17.015Z,9.68
2023-03-16T07:55:46.430Z,9.89
2023-03-16T07:58:14.614Z,8.71
2023-03-16T08:00:43.585Z,9.38
2023-03-16T08:03:11.794Z,8.37
2023-03-16T08:05:39.565Z,9.65
2023-03-16T08:08:09.579Z,9.51
2023-03-16T08:10:37.282Z,10.51
2023-03-16T08:13:06.440Z,11.64
2023-03-16T08:15:35.051Z,11.87
2023-03-16T08:18:03.500Z,12.47
2023-03-16T08:20:32.071Z,13.05
2023-03-16T08:23:00.212Z,11.99
2023-03-16T08:25:27.936Z,12.72
2023-03-16T08:27:55.814Z,12.92
2023-03-16T08:30:25.560Z,13.63
2023-03-16T08:32:53.425Z,13.28
2023-03-16T08:35:21.191Z,12.41
2023-03-16T08:37:49.666Z,12.86
2023-03-16T08:40:17.996Z,12.10
2023-03-16T08:42:46.432Z,11.99
2023-03-16T08:45:14.974Z,12.62
2023-03-16T08:47:44.803Z,13.61
2023-03-16T08:50:15.491Z,11.51
2023-03-16T08:52:43.408Z,11.71
2023-03-16T08:55:13.223Z,13.24
2023-03-16T08:57:41.021Z,12.33
2023-03-16T09:00:13.217Z,13.13
2023-03-16T09:02:41.848Z,12.87
2023-03-16T09:05:12.680Z,12.46
2023-03-16T09:07:40.869Z,14.17
2023-03-16T09:10:11.882Z,13.29
2023-03-16T09:12:43.557Z,13.94
2023-03-16T09:15:13.763Z,12.22
2023-03-16T09:17:42.173Z,11.14
2023-03-16T09:20:22.227Z,10.24
2023-03-16T09:22:54.542Z,10.13
2023-03-16T09:25:22.654Z,9.76
2023-03-16T09:27:50.901Z,10.40
2023-03-16T09:30:18.981Z,10.53
2023-03-16T09:32:48.857Z,10.25
2023-03-16T09:35:19.547Z,10.39
2023-03-16T09:38:04.729Z,10.11
2023-03-16T09:40:33.660Z,10.09
2023-03-16T09:43:33.687Z,10.67
2023-03-16T09:46:09.740Z,9.84
2023-03-16T09:48:39.761Z,10.30
2023-03-16T09:51:19.151Z,10.03
2023-03-16T09:53:48.482Z,10.27
2023-03-16T09:56:21.184Z,9.71
2023-03-16T09:58:49.278Z,9.92
2023-03-16T10:01:27.744Z,9.90
2023-03-16T10:04:06.786Z,10.13
2023-03-16T10:06:45.170Z,10.74
2023-03-16T10:09:29.192Z,10.07
2023-03-16T10:11:59.754Z,10.02
2023-03-16T10:14:34.566Z,10.09
2023-03-16T10:17:09.373Z,10.45
2023-03-16T10:19:43.278Z,10.67
2023-03-16T10:22:20.420Z,10.54
2023-03-16T10:24:59.380Z,11.08
2023-03-16T10:27:30.660Z,11.08
2023-03-16T10:29:58.551Z,10.39
2023-03-16T10:32:29.540Z,10.99
2023-03-16T10:35:02.307Z,10.39
2023-03-16T10:37:32.664Z,10.52
2023-03-16T10:40:01.456Z,10.87
2023-03-16T10:42:29.366Z,10.82
2023-03-16T10:45:02.991Z,11.45
2023-03-16T10:47:32.974Z,11.42
2023-03-16T10:50:11.571Z,12.01
2023-03-16T10:52:44.178Z,11.41
2023-03-16T10:55:18.509Z,10.56
2023-03-16T10:57:51.592Z,10.89
2023-03-16T11:00:24.366Z,11.31
2023-03-16T11:02:54.280Z,11.30
2023-03-16T11:05:33.176Z,10.96
2023-03-16T11:08:10.606Z,10.95
2023-03-16T11:10:49.432Z,10.80
2023-03-16T11:13:22.680Z,11.90
2023-03-16T11:15:57.507Z,11.19
2023-03-16T11:18:31.278Z,11.03
2023-03-16T11:21:04.497Z,11.47
2023-03-16T11:23:38.715Z,10.87
2023-03-16T11:26:14.954Z,11.19
2023-03-16T11:28:48.668Z,11.67
2023-03-16T11:31:24.425Z,11.21
2023-03-16T11:33:55.414Z,11.35
2023-03-16T11:36:37.627Z,11.40
2023-03-16T11:39:14.298Z,10.96
2023-03-16T11:41:55.574Z,11.16
2023-03-16T11:44:30.963Z,11.41
2023-03-16T11:47:07.380Z,11.56
2023-03-16T11:49:51.917Z,11.35
2023-03-16T11:52:33.256Z,10.51
2023-03-16T11:55:19.390Z,11.15
2023-03-16T11:57:58.521Z,11.88
2023-03-16T12:00:38.509Z,11.95
2023-03-16T12:03:28.782Z,11.11
2023-03-16T12:06:05.671Z,11.31
2023-03-16T12:09:06.492Z,11.10
2023-03-16T12:11:43.670Z,11.41
2023-03-16T12:14:19.887Z,11.64
2023-03-16T12:16:57.203Z,10.69
2023-03-16T12:19:32.455Z,12.01
2023-03-16T12:22:08.758Z,11.18
2023-03-16T12:24:43.783Z,11.24
2023-03-16T12:27:17.550Z,11.11
2023-03-16T12:29:58.466Z,11.19
2023-03-16T12:32:36.986Z,11.10
2023-03-16T12:35:18.666Z,10.79
2023-03-16T12:37:55.124Z,11.35
2023-03-16T12:40:34.733Z,11.26
2023-03-16T12:43:15.866Z,11.40
2023-03-16T12:45:52.950Z,11.31
2023-03-16T12:48:29.878Z,10.88
2023-03-16T12:51:00.406Z,11.86
2023-03-16T12:53:30.749Z,11.90
2023-03-16T12:55:58.888Z,11.66
2023-03-16T12:58:28.530Z,11.18
2023-03-16T13:00:58.494Z,11.00
2023-03-16T13:03:27.768Z,11.31
2023-03-16T13:05:58.771Z,11.73
2023-03-16T13:08:27.894Z,11.23
2023-03-16T13:11:04.571Z,11.05
2023-03-16T13:13:34.648Z,10.98
2023-03-16T13:16:06.947Z,11.84
2023-03-16T13:18:38.090Z,11.57
2023-03-16T13:21:18.041Z,11.24
2023-03-16T13:23:58.568Z,11.55
2023-03-16T13:26:40.688Z,11.02
2023-03-16T13:29:23.908Z,11.45
2023-03-16T13:31:53.649Z,11.24
2023-03-16T13:34:24.351Z,11.48
2023-03-16T13:36:57.934Z,11.35
2023-03-16T13:39:28.372Z,11.50
2023-03-16T13:42:01.842Z,11.32
2023-03-16T13:44:31.703Z,11.04
2023-03-16T13:47:05.130Z,11.50
2023-03-16T13:49:33.043Z,11.19
2023-03-16T13:52:03.606Z,11.45
2023-03-16T13:54:32.141Z,11.23
2023-03-16T13:57:04.286Z,10.95
2023-03-16T13:59:33.550Z,11.32
2023-03-16T14:02:02.844Z,11.18
2023-03-16T14:04:32.718Z,10.93
2023-03-16T14:07:02.367Z,11.39
2023-03-16T14:09:34.496Z,11.51
2023-03-16T14:12:02.397Z,10.85
2023-03-16T14:14:32.393Z,10.93
2023-03-16T14:17:12.486Z,11.04
2023-03-16T14:19:44.457Z,10.80
2023-03-16T14:22:15.356Z,11.13
2023-03-16T14:24:44.279Z,11.23
2023-03-16T14:27:28.422Z,11.03
2023-03-16T14:30:01.084Z,11.57
2023-03-16T14:32:33.500Z,11.62
2023-03-16T14:35:05.450Z,11.46
2023-03-16T14:37:37.644Z,11.78
2023-03-16T14:40:09.126Z,11.18
2023-03-16T14:42:36.841Z,11.39
2023-03-16T14:45:13.026Z,11.48
2023-03-16T14:47:44.325Z,11.70
2023-03-16T14:50:18.827Z,11.89
2023-03-16T14:52:47.293Z,12.46
2023-03-16T14:55:19.300Z,12.24
2023-03-16T14:57:49.373Z,12.28
2023-03-16T15:00:19.282Z,11.41
2023-03-16T15:02:59.091Z,11.53
2023-03-16T15:05:35.148Z,11.72
2023-03-16T15:08:05.460Z,11.43
2023-03-16T15:10:35.606Z,11.27
2023-03-16T15:13:13.269Z,11.02
2023-03-16T15:15:43.014Z,11.11
2023-03-16T15:18:12.201Z,10.94
2023-03-16T15:20:42.524Z,10.98
2023-03-16T15:23:15.828Z,10.92
2023-03-16T15:25:45.819Z,11.08
2023-03-16T15:28:16.029Z,11.13
2023-03-16T15:30:45.108Z,11.05
2023-03-16T15:33:15.156Z,11.03
2023-03-16T15:35:43.740Z,10.99
2023-03-16T15:38:15.819Z,10.91
2023-03-16T15:40:45.684Z,10.92
2023-03-16T15:43:13.988Z,11.14
2023-03-16T15:45:42.127Z,11.33
2023-03-16T15:48:11.073Z,10.80
2023-03-16T15:50:42.845Z,10.88
2023-03-16T15:53:29.661Z,10.96
2023-03-16T15:56:03.078Z,11.32
2023-03-16T15:58:33.224Z,11.28
2023-03-16T16:01:02.726Z,10.82
2023-03-16T16:03:31.015Z,10.81
2023-03-16T16:06:01.101Z,10.83
2023-03-16T16:08:28.949Z,10.48
2023-03-16T16:10:57.829Z,11.14
2023-03-16T16:13:48.314Z,11.47
2023-03-16T16:16:18.797Z,10.72
2023-03-16T16:18:48.923Z,11.02
2023-03-16T16:21:19.705Z,11.13
2023-03-16T16:23:47.836Z,10.96
2023-03-16T16:26:27.864Z,11.02
2023-03-16T16:28:59.591Z,10.73
2023-03-16T16:31:30.167Z,10.87
2023-03-16T16:33:58.954Z,10.81
2023-03-16T16:36:32.309Z,10.78
2023-03-16T16:39:00.453Z,11.35
2023-03-16T16:41:30.608Z,11.04
2023-03-16T16:43:59.963Z,11.01
2023-03-16T16:46:29.644Z,11.14
2023-03-16T16:49:01.682Z,10.99
2023-03-16T16:51:30.935Z,10.76
2023-03-16T16:54:01.148Z,10.78
2023-03-16T16:56:31.225Z,11.02
2023-03-16T16:59:00.654Z,10.63
2023-03-16T17:01:30.328Z,10.74
2023-03-16T17:03:58.233Z,10.44
2023-03-16T17:06:27.852Z,10.48
2023-03-16T17:08:57.005Z,10.68
2023-03-16T17:11:26.355Z,10.46
2023-03-16T17:13:55.615Z,10.68
2023-03-16T17:16:25.812Z,10.62
2023-03-16T17:18:54.382Z,10.59
2023-03-16T17:21:23.683Z,11.04
2023-03-16T17:23:53.590Z,10.18
2023-03-16T17:26:25.301Z,10.58
2023-03-16T17:28:58.083Z,10.65
2023-03-16T17:31:28.266Z,10.72
2023-03-16T17:33:58.312Z,10.78
2023-03-16T17:36:26.462Z,10.39
2023-03-16T17:38:54.748Z,10.23
2023-03-16T17:41:26.659Z,10.29
2023-03-16T17:43:56.709Z,10.02
2023-03-16T17:46:27.689Z,10.15
2023-03-16T17:48:56.106Z,10.39
2023-03-16T17:51:26.009Z,9.92
2023-03-16T17:53:55.737Z,10.31
2023-03-16T17:56:27.780Z,10.05
2023-03-16T17:58:58.129Z,9.85
2023-03-16T18:01:30.229Z,10.02
2023-03-16T18:03:58.475Z,10.15
2023-03-16T18:06:29.174Z,9.98
2023-03-16T18:08:57.458Z,9.90
2023-03-16T18:11:34.191Z,9.76
2023-03-16T18:14:03.941Z,9.69
2023-03-16T18:16:32.291Z,9.71
2023-03-16T18:19:05.703Z,9.85
2023-03-16T18:21:36.370Z,9.97
2023-03-16T18:24:04.876Z,9.87
2023-03-16T18:26:34.113Z,9.98
2023-03-16T18:29:01.952Z,9.83
2023-03-16T18:31:30.990Z,9.65
2023-03-16T18:34:00.722Z,10.17
2023-03-16T18:36:31.033Z,9.72
2023-03-16T18:39:00.754Z,9.98
2023-03-16T18:41:30.459Z,9.50
2023-03-16T18:44:02.237Z,9.87
2023-03-16T18:46:32.091Z,9.78
2023-03-16T18:49:02.239Z,9.48
2023-03-16T18:51:30.540Z,9.82
2023-03-16T18:53:58.485Z,10.02
2023-03-16T18:56:27.948Z,9.58
2023-03-16T18:58:57.035Z,9.85
2023-03-16T19:01:29.791Z,9.29
2023-03-16T19:04:00.129Z,9.58
2023-03-16T19:06:31.005Z,9.35
2023-03-16T19:09:03.927Z,9.31
2023-03-16T19:11:32.191Z,9.71
2023-03-16T19:13:59.886Z,9.50
2023-03-16T19:16:29.099Z,9.57
2023-03-16T19:18:56.877Z,9.64
2023-03-16T19:21:24.654Z,9.67
2023-03-16T19:23:57.740Z,9.77
2023-03-16T19:26:26.025Z,9.69
2023-03-16T19:28:53.960Z,8.95
2023-03-16T19:31:23.590Z,9.25
2023-03-16T19:33:53.106Z,9.06
2023-03-16T19:36:25.792Z,9.11
2023-03-16T19:38:54.365Z,8.87
2023-03-16T19:41:26.890Z,8.89
2023-03-16T19:43:56.581Z,9.25
2023-03-16T19:46:25.989Z,9.50
2023-03-16T19:48:55.633Z,9.41
2023-03-16T19:51:25.380Z,9.09
2023-03-16T19:53:53.358Z,9.53
2023-03-16T19:56:26.245Z,9.36
2023-03-16T19:58:55.640Z,9.19
2023-03-16T20:01:30.416Z,9.04
2023-03-16T20:04:04.169Z,8.90
2023-03-16T20:06:33.349Z,9.49
2023-03-16T20:09:01.170Z,9.10
2023-03-16T20:11:31.761Z,8.94
2023-03-16T20:14:00.821Z,8.67
2023-03-16T20:16:31.253Z,8.97
2023-03-16T20:19:02.954Z,8.97
2023-03-16T20:21:31.323Z,8.81
2023-03-16T20:23:59.136Z,8.86
2023-03-16T20:26:32.217Z,9.00
2023-03-16T20:29:00.868Z,8.85
2023-03-16T20:31:31.394Z,8.84
2023-03-16T20:34:00.980Z,8.89
2023-03-16T20:36:28.783Z,8.99
2023-03-16T20:38:56.535Z,9.24
2023-03-16T20:41:27.787Z,9.39
2023-03-16T20:43:57.272Z,8.87
2023-03-16T20:46:27.883Z,8.92
2023-03-16T20:48:55.810Z,9.12
2023-03-16T20:51:25.006Z,9.00
2023-03-16T20:53:53.089Z,8.98
2023-03-16T20:56:23.217Z,9.27
2023-03-16T20:58:54.662Z,8.83
2023-03-16T21:01:24.694Z,9.46
2023-03-16T21:03:55.252Z,9.24
2023-03-16T21:06:26.170Z,9.30
2023-03-16T21:08:55.275Z,9.21
2023-03-16T21:11:26.148Z,8.87
2023-03-16T21:13:55.115Z,8.18
2023-03-16T21:16:23.205Z,9.11
2023-03-16T21:18:51.014Z,8.56
2023-03-16T21:21:20.532Z,8.82
2023-03-16T21:23:49.825Z,9.21
2023-03-16T21:26:20.841Z,8.89
2023-03-16T21:28:54.940Z,8.87
2023-03-16T21:31:23.463Z,8.81
2023-03-16T21:33:53.769Z,8.80
2023-03-16T21:36:23.794Z,8.85
2023-03-16T21:38:54.065Z,8.82
2023-03-16T21:41:22.497Z,8.66
2023-03-16T21:43:51.093Z,8.67
2023-03-16T21:46:20.717Z,8.80
2023-03-16T21:48:50.615Z,9.02
2023-03-16T21:51:20.105Z,8.75
2023-03-16T21:53:49.262Z,8.50
2023-03-16T21:56:20.718Z,8.79
2023-03-16T21:58:48.658Z,9.23
2023-03-16T22:01:24.772Z,8.78
2023-03-16T22:03:54.721Z,8.95
2023-03-16T22:06:23.677Z,8.83
2023-03-16T22:08:52.412Z,9.10
2023-03-16T22:11:23.844Z,9.15
2023-03-16T22:13:52.666Z,9.01
2023-03-16T22:16:23.284Z,9.09
2023-03-16T22:18:53.186Z,8.94
2023-03-16T22:21:33.266Z,9.19
2023-03-16T22:24:02.677Z,8.80
2023-03-16T22:26:32.151Z,8.82
2023-03-16T22:29:00.920Z,8.82
2023-03-16T22:31:33.788Z,9.20
2023-03-16T22:34:02.991Z,8.96
2023-03-16T22:36:32.805Z,8.72
2023-03-16T22:39:03.186Z,8.94
2023-03-16T22:41:32.704Z,8.86
2023-03-16T22:44:01.626Z,8.78
2023-03-16T22:46:29.726Z,9.23
2023-03-16T22:48:58.444Z,9.00
2023-03-16T22:51:30.123Z,8.98
2023-03-16T22:54:00.462Z,8.51
2023-03-16T22:56:29.580Z,8.79
2023-03-16T22:59:02.209Z,8.75
2023-03-16T23:01:33.592Z,9.22
2023-03-16T23:04:01.849Z,8.69
2023-03-16T23:06:31.492Z,8.87
2023-03-16T23:08:59.342Z,8.58
2023-03-16T23:11:28.963Z,8.43
2023-03-16T23:13:59.730Z,8.16
2023-03-16T23:16:30.465Z,8.40
2023-03-16T23:18:58.381Z,8.60
2023-03-16T23:21:27.858Z,8.71
2023-03-16T23:24:03.642Z,8.06
2023-03-16T23:26:32.756Z,8.85
2023-03-16T23:29:01.900Z,9.15
2023-03-16T23:31:30.681Z,8.23
2023-03-16T23:33:58.789Z,8.15
2023-03-16T23:36:27.354Z,8.62
2023-03-16T23:38:55.217Z,8.22
2023-03-16T23:41:25.191Z,9.19
2023-03-16T23:43:54.089Z,9.33
2023-03-16T23:46:25.699Z,9.09
2023-03-16T23:48:54.981Z,8.80
2023-03-16T23:51:28.332Z,8.59
2023-03-16T23:53:56.540Z,8.73
2023-03-16T23:56:26.202Z,8.87
2023-03-16T23:58:54.153Z,9.18
